sensor_id;sensor_type;location;lat;lon;timestamp;P1;durP1;ratioP1;P2;durP2;ratioP2
52015;SDS011;38032;53.326;6.472;2023-05-07T00:01:35;23.30;;;18.00;;
52015;SDS011;38032;53.326;6.472;2023-05-07T00:04:01;25.33;;;18.42;;
52015;SDS011;38032;53.326;6.472;2023-05-07T00:06:28;29.20;;;19.50;;
52015;SDS011;38032;53.326;6.472;2023-05-07T00:08:56;24.85;;;19.20;;
52015;SDS011;38032;53.326;6.472;2023-05-07T00:11:22;22.90;;;18.63;;
52015;SDS011;38032;53.326;6.472;2023-05-07T00:13:48;29.90;;;20.08;;
52015;SDS011;38032;53.326;6.472;2023-05-07T00:16:14;29.85;;;20.52;;
52015;SDS011;38032;53.326;6.472;2023-05-07T00:18:40;32.83;;;20.60;;
52015;SDS011;38032;53.326;6.472;2023-05-07T00:21:06;29.42;;;20.58;;
52015;SDS011;38032;53.326;6.472;2023-05-07T00:23:32;27.08;;;20.40;;
52015;SDS011;38032;53.326;6.472;2023-05-07T00:25:58;27.05;;;20.33;;
52015;SDS011;38032;53.326;6.472;2023-05-07T00:28:23;28.10;;;19.92;;
52015;SDS011;38032;53.326;6.472;2023-05-07T00:30:49;28.05;;;20.25;;
52015;SDS011;38032;53.326;6.472;2023-05-07T00:33:15;29.98;;;20.08;;
52015;SDS011;38032;53.326;6.472;2023-05-07T00:35:42;28.92;;;21.30;;
52015;SDS011;38032;53.326;6.472;2023-05-07T00:38:08;30.70;;;20.90;;
52015;SDS011;38032;53.326;6.472;2023-05-07T00:40:33;30.10;;;21.58;;
52015;SDS011;38032;53.326;6.472;2023-05-07T00:43:00;35.17;;;22.42;;
52015;SDS011;38032;53.326;6.472;2023-05-07T00:45:26;34.00;;;22.52;;
52015;SDS011;38032;53.326;6.472;2023-05-07T00:47:54;33.03;;;21.92;;
52015;SDS011;38032;53.326;6.472;2023-05-07T00:50:22;31.83;;;23.48;;
52015;SDS011;38032;53.326;6.472;2023-05-07T00:52:48;33.58;;;22.50;;
52015;SDS011;38032;53.326;6.472;2023-05-07T00:55:14;36.10;;;24.05;;
52015;SDS011;38032;53.326;6.472;2023-05-07T00:57:40;35.67;;;24.98;;
52015;SDS011;38032;53.326;6.472;2023-05-07T01:00:08;35.38;;;23.75;;
52015;SDS011;38032;53.326;6.472;2023-05-07T01:02:35;37.72;;;25.13;;
52015;SDS011;38032;53.326;6.472;2023-05-07T01:05:01;34.13;;;24.77;;
52015;SDS011;38032;53.326;6.472;2023-05-07T01:07:29;36.72;;;26.08;;
52015;SDS011;38032;53.326;6.472;2023-05-07T01:09:56;37.13;;;25.05;;
52015;SDS011;38032;53.326;6.472;2023-05-07T01:12:22;35.50;;;25.00;;
52015;SDS011;38032;53.326;6.472;2023-05-07T01:14:49;38.05;;;26.35;;
52015;SDS011;38032;53.326;6.472;2023-05-07T01:17:16;39.35;;;27.52;;
52015;SDS011;38032;53.326;6.472;2023-05-07T01:19:42;48.28;;;28.48;;
52015;SDS011;38032;53.326;6.472;2023-05-07T01:22:09;45.30;;;27.92;;
52015;SDS011;38032;53.326;6.472;2023-05-07T01:24:37;42.47;;;28.20;;
52015;SDS011;38032;53.326;6.472;2023-05-07T01:27:03;46.72;;;30.90;;
52015;SDS011;38032;53.326;6.472;2023-05-07T01:29:29;45.15;;;29.27;;
52015;SDS011;38032;53.326;6.472;2023-05-07T01:31:57;46.67;;;30.42;;
52015;SDS011;38032;53.326;6.472;2023-05-07T01:34:24;48.20;;;31.83;;
52015;SDS011;38032;53.326;6.472;2023-05-07T01:36:53;47.08;;;30.80;;
52015;SDS011;38032;53.326;6.472;2023-05-07T01:39:22;47.95;;;31.13;;
52015;SDS011;38032;53.326;6.472;2023-05-07T01:41:50;50.38;;;31.77;;
52015;SDS011;38032;53.326;6.472;2023-05-07T01:44:16;54.42;;;32.65;;
52015;SDS011;38032;53.326;6.472;2023-05-07T01:46:44;54.63;;;34.33;;
52015;SDS011;38032;53.326;6.472;2023-05-07T01:49:10;54.08;;;35.03;;
52015;SDS011;38032;53.326;6.472;2023-05-07T01:51:36;58.22;;;35.85;;
52015;SDS011;38032;53.326;6.472;2023-05-07T01:54:02;55.70;;;35.20;;
52015;SDS011;38032;53.326;6.472;2023-05-07T01:56:28;57.75;;;36.05;;
52015;SDS011;38032;53.326;6.472;2023-05-07T01:58:54;60.38;;;36.03;;
52015;SDS011;38032;53.326;6.472;2023-05-07T02:01:20;57.35;;;35.78;;
52015;SDS011;38032;53.326;6.472;2023-05-07T02:03:46;63.92;;;37.05;;
52015;SDS011;38032;53.326;6.472;2023-05-07T02:06:11;66.40;;;39.83;;
52015;SDS011;38032;53.326;6.472;2023-05-07T02:08:37;65.57;;;39.20;;
52015;SDS011;38032;53.326;6.472;2023-05-07T02:11:03;67.20;;;37.33;;
52015;SDS011;38032;53.326;6.472;2023-05-07T02:13:29;68.22;;;38.45;;
52015;SDS011;38032;53.326;6.472;2023-05-07T02:15:57;64.53;;;38.03;;
52015;SDS011;38032;53.326;6.472;2023-05-07T02:18:23;68.53;;;39.53;;
52015;SDS011;38032;53.326;6.472;2023-05-07T02:20:49;67.53;;;39.22;;
52015;SDS011;38032;53.326;6.472;2023-05-07T02:23:14;72.25;;;39.60;;
52015;SDS011;38032;53.326;6.472;2023-05-07T02:25:40;65.82;;;38.33;;
52015;SDS011;38032;53.326;6.472;2023-05-07T02:28:06;66.28;;;38.22;;
52015;SDS011;38032;53.326;6.472;2023-05-07T02:30:32;66.53;;;38.47;;
52015;SDS011;38032;53.326;6.472;2023-05-07T02:32:58;73.57;;;40.88;;
52015;SDS011;38032;53.326;6.472;2023-05-07T02:35:24;67.30;;;39.90;;
52015;SDS011;38032;53.326;6.472;2023-05-07T02:37:50;63.90;;;37.45;;
52015;SDS011;38032;53.326;6.472;2023-05-07T02:40:16;60.55;;;36.20;;
52015;SDS011;38032;53.326;6.472;2023-05-07T02:42:42;61.78;;;35.90;;
52015;SDS011;38032;53.326;6.472;2023-05-07T02:45:08;60.13;;;36.45;;
52015;SDS011;38032;53.326;6.472;2023-05-07T02:47:35;64.82;;;36.22;;
52015;SDS011;38032;53.326;6.472;2023-05-07T02:50:01;62.95;;;36.80;;
52015;SDS011;38032;53.326;6.472;2023-05-07T02:52:26;66.45;;;37.80;;
52015;SDS011;38032;53.326;6.472;2023-05-07T02:54:52;66.40;;;38.22;;
52015;SDS011;38032;53.326;6.472;2023-05-07T02:57:18;71.10;;;39.22;;
52015;SDS011;38032;53.326;6.472;2023-05-07T02:59:44;69.78;;;39.83;;
52015;SDS011;38032;53.326;6.472;2023-05-07T03:02:10;78.75;;;42.78;;
52015;SDS011;38032;53.326;6.472;2023-05-07T03:04:35;79.60;;;42.70;;
52015;SDS011;38032;53.326;6.472;2023-05-07T03:07:01;75.32;;;42.15;;
52015;SDS011;38032;53.326;6.472;2023-05-07T03:09:27;74.30;;;39.97;;
52015;SDS011;38032;53.326;6.472;2023-05-07T03:11:53;66.03;;;38.72;;
52015;SDS011;38032;53.326;6.472;2023-05-07T03:14:19;69.10;;;38.47;;
52015;SDS011;38032;53.326;6.472;2023-05-07T03:16:45;74.63;;;40.75;;
52015;SDS011;38032;53.326;6.472;2023-05-07T03:19:11;71.95;;;40.20;;
52015;SDS011;38032;53.326;6.472;2023-05-07T03:21:37;63.42;;;36.63;;
52015;SDS011;38032;53.326;6.472;2023-05-07T03:24:03;66.85;;;39.15;;
52015;SDS011;38032;53.326;6.472;2023-05-07T03:26:29;65.95;;;38.67;;
52015;SDS011;38032;53.326;6.472;2023-05-07T03:28:55;70.47;;;39.78;;
52015;SDS011;38032;53.326;6.472;2023-05-07T03:31:20;63.72;;;38.15;;
52015;SDS011;38032;53.326;6.472;2023-05-07T03:33:53;67.55;;;38.70;;
52015;SDS011;38032;53.326;6.472;2023-05-07T03:36:20;69.38;;;39.17;;
52015;SDS011;38032;53.326;6.472;2023-05-07T03:38:46;69.97;;;39.35;;
52015;SDS011;38032;53.326;6.472;2023-05-07T03:41:13;71.40;;;40.90;;
52015;SDS011;38032;53.326;6.472;2023-05-07T03:43:39;75.53;;;39.33;;
52015;SDS011;38032;53.326;6.472;2023-05-07T03:46:05;72.68;;;41.05;;
52015;SDS011;38032;53.326;6.472;2023-05-07T03:48:31;74.55;;;40.85;;
52015;SDS011;38032;53.326;6.472;2023-05-07T03:50:57;75.97;;;42.58;;
52015;SDS011;38032;53.326;6.472;2023-05-07T03:53:23;81.35;;;43.28;;
52015;SDS011;38032;53.326;6.472;2023-05-07T03:55:49;79.43;;;43.42;;
52015;SDS011;38032;53.326;6.472;2023-05-07T03:58:15;72.85;;;41.08;;
52015;SDS011;38032;53.326;6.472;2023-05-07T04:00:41;75.50;;;41.67;;
52015;SDS011;38032;53.326;6.472;2023-05-07T04:03:07;76.25;;;41.45;;
52015;SDS011;38032;53.326;6.472;2023-05-07T04:05:34;77.38;;;43.60;;
52015;SDS011;38032;53.326;6.472;2023-05-07T04:08:00;76.07;;;42.40;;
52015;SDS011;38032;53.326;6.472;2023-05-07T04:10:26;79.43;;;42.92;;
52015;SDS011;38032;53.326;6.472;2023-05-07T04:12:53;81.30;;;44.40;;
52015;SDS011;38032;53.326;6.472;2023-05-07T04:15:19;88.60;;;45.05;;
52015;SDS011;38032;53.326;6.472;2023-05-07T04:17:45;86.55;;;46.75;;
52015;SDS011;38032;53.326;6.472;2023-05-07T04:20:13;85.60;;;47.05;;
52015;SDS011;38032;53.326;6.472;2023-05-07T04:22:40;80.72;;;43.28;;
52015;SDS011;38032;53.326;6.472;2023-05-07T04:25:06;72.15;;;42.78;;
52015;SDS011;38032;53.326;6.472;2023-05-07T04:27:34;72.60;;;41.00;;
52015;SDS011;38032;53.326;6.472;2023-05-07T04:30:01;62.42;;;37.88;;
52015;SDS011;38032;53.326;6.472;2023-05-07T04:32:28;52.13;;;33.80;;
52015;SDS011;38032;53.326;6.472;2023-05-07T04:34:54;55.95;;;35.35;;
52015;SDS011;38032;53.326;6.472;2023-05-07T04:37:21;56.17;;;34.05;;
52015;SDS011;38032;53.326;6.472;2023-05-07T04:39:47;52.72;;;33.53;;
52015;SDS011;38032;53.326;6.472;2023-05-07T04:42:16;57.72;;;34.60;;
52015;SDS011;38032;53.326;6.472;2023-05-07T04:44:44;55.13;;;33.75;;
52015;SDS011;38032;53.326;6.472;2023-05-07T04:47:10;56.40;;;33.70;;
52015;SDS011;38032;53.326;6.472;2023-05-07T04:49:37;50.47;;;32.08;;
52015;SDS011;38032;53.326;6.472;2023-05-07T04:52:03;52.55;;;32.15;;
52015;SDS011;38032;53.326;6.472;2023-05-07T04:54:30;54.47;;;33.30;;
52015;SDS011;38032;53.326;6.472;2023-05-07T04:56:56;51.03;;;32.58;;
52015;SDS011;38032;53.326;6.472;2023-05-07T04:59:21;50.08;;;31.05;;
52015;SDS011;38032;53.326;6.472;2023-05-07T05:01:47;49.30;;;31.40;;
52015;SDS011;38032;53.326;6.472;2023-05-07T05:04:13;56.10;;;32.70;;
52015;SDS011;38032;53.326;6.472;2023-05-07T05:06:39;58.20;;;35.72;;
52015;SDS011;38032;53.326;6.472;2023-05-07T05:09:05;61.97;;;36.65;;
52015;SDS011;38032;53.326;6.472;2023-05-07T05:11:31;70.90;;;38.33;;
52015;SDS011;38032;53.326;6.472;2023-05-07T05:13:58;70.90;;;40.78;;
52015;SDS011;38032;53.326;6.472;2023-05-07T05:16:25;75.43;;;42.40;;
52015;SDS011;38032;53.326;6.472;2023-05-07T05:18:51;77.70;;;41.47;;
52015;SDS011;38032;53.326;6.472;2023-05-07T05:21:19;76.38;;;41.85;;
52015;SDS011;38032;53.326;6.472;2023-05-07T05:23:45;90.20;;;44.50;;
52015;SDS011;38032;53.326;6.472;2023-05-07T05:26:11;80.35;;;44.30;;
52015;SDS011;38032;53.326;6.472;2023-05-07T05:28:37;84.53;;;46.40;;
52015;SDS011;38032;53.326;6.472;2023-05-07T05:31:02;89.10;;;47.15;;
52015;SDS011;38032;53.326;6.472;2023-05-07T05:33:29;87.72;;;45.35;;
52015;SDS011;38032;53.326;6.472;2023-05-07T05:35:55;91.40;;;47.63;;
52015;SDS011;38032;53.326;6.472;2023-05-07T05:38:20;94.07;;;47.28;;
52015;SDS011;38032;53.326;6.472;2023-05-07T05:40:46;96.55;;;49.45;;
52015;SDS011;38032;53.326;6.472;2023-05-07T05:43:13;94.47;;;47.83;;
52015;SDS011;38032;53.326;6.472;2023-05-07T05:45:39;95.97;;;48.70;;
52015;SDS011;38032;53.326;6.472;2023-05-07T05:48:05;85.78;;;46.47;;
52015;SDS011;38032;53.326;6.472;2023-05-07T05:50:31;96.38;;;50.85;;
52015;SDS011;38032;53.326;6.472;2023-05-07T05:52:57;86.35;;;47.45;;
52015;SDS011;38032;53.326;6.472;2023-05-07T05:55:23;90.32;;;46.67;;
52015;SDS011;38032;53.326;6.472;2023-05-07T05:57:49;82.55;;;46.90;;
52015;SDS011;38032;53.326;6.472;2023-05-07T06:00:16;90.75;;;48.10;;
52015;SDS011;38032;53.326;6.472;2023-05-07T06:02:42;80.82;;;46.67;;
52015;SDS011;38032;53.326;6.472;2023-05-07T06:05:08;84.32;;;46.78;;
52015;SDS011;38032;53.326;6.472;2023-05-07T06:07:34;77.78;;;45.15;;
52015;SDS011;38032;53.326;6.472;2023-05-07T06:10:00;80.47;;;44.92;;
52015;SDS011;38032;53.326;6.472;2023-05-07T06:12:26;75.47;;;45.17;;
52015;SDS011;38032;53.326;6.472;2023-05-07T06:14:52;80.68;;;45.85;;
52015;SDS011;38032;53.326;6.472;2023-05-07T06:17:18;72.60;;;44.05;;
52015;SDS011;38032;53.326;6.472;2023-05-07T06:19:44;67.55;;;41.08;;
52015;SDS011;38032;53.326;6.472;2023-05-07T06:22:10;66.28;;;41.72;;
52015;SDS011;38032;53.326;6.472;2023-05-07T06:24:36;68.85;;;40.33;;
52015;SDS011;38032;53.326;6.472;2023-05-07T06:27:01;68.28;;;42.22;;
52015;SDS011;38032;53.326;6.472;2023-05-07T06:29:28;62.88;;;38.88;;
52015;SDS011;38032;53.326;6.472;2023-05-07T06:31:56;66.18;;;40.90;;
52015;SDS011;38032;53.326;6.472;2023-05-07T06:34:31;68.18;;;42.47;;
52015;SDS011;38032;53.326;6.472;2023-05-07T06:36:56;62.38;;;39.55;;
52015;SDS011;38032;53.326;6.472;2023-05-07T06:39:23;60.03;;;38.28;;
52015;SDS011;38032;53.326;6.472;2023-05-07T06:41:49;53.33;;;34.72;;
52015;SDS011;38032;53.326;6.472;2023-05-07T06:44:14;52.38;;;33.97;;
52015;SDS011;38032;53.326;6.472;2023-05-07T06:46:40;52.08;;;33.53;;
52015;SDS011;38032;53.326;6.472;2023-05-07T06:49:06;48.25;;;32.10;;
52015;SDS011;38032;53.326;6.472;2023-05-07T06:51:32;47.08;;;31.88;;
52015;SDS011;38032;53.326;6.472;2023-05-07T06:53:58;50.15;;;32.53;;
52015;SDS011;38032;53.326;6.472;2023-05-07T06:56:24;47.58;;;31.92;;
52015;SDS011;38032;53.326;6.472;2023-05-07T06:58:51;49.28;;;32.92;;
52015;SDS011;38032;53.326;6.472;2023-05-07T07:01:17;49.97;;;33.40;;
52015;SDS011;38032;53.326;6.472;2023-05-07T07:03:43;50.65;;;33.63;;
52015;SDS011;38032;53.326;6.472;2023-05-07T07:06:09;51.28;;;34.60;;
52015;SDS011;38032;53.326;6.472;2023-05-07T07:08:34;51.88;;;35.95;;
52015;SDS011;38032;53.326;6.472;2023-05-07T07:11:00;51.15;;;34.97;;
52015;SDS011;38032;53.326;6.472;2023-05-07T07:13:26;51.05;;;35.05;;
52015;SDS011;38032;53.326;6.472;2023-05-07T07:15:52;48.25;;;33.03;;
52015;SDS011;38032;53.326;6.472;2023-05-07T07:18:18;44.53;;;33.00;;
52015;SDS011;38032;53.326;6.472;2023-05-07T07:20:44;46.58;;;31.00;;
52015;SDS011;38032;53.326;6.472;2023-05-07T07:23:10;45.45;;;31.70;;
52015;SDS011;38032;53.326;6.472;2023-05-07T07:25:36;45.38;;;32.13;;
52015;SDS011;38032;53.326;6.472;2023-05-07T07:28:02;48.00;;;33.30;;
52015;SDS011;38032;53.326;6.472;2023-05-07T07:30:28;47.33;;;33.72;;
52015;SDS011;38032;53.326;6.472;2023-05-07T07:32:54;48.60;;;34.50;;
52015;SDS011;38032;53.326;6.472;2023-05-07T07:35:25;48.10;;;33.45;;
52015;SDS011;38032;53.326;6.472;2023-05-07T07:37:51;45.90;;;32.10;;
52015;SDS011;38032;53.326;6.472;2023-05-07T07:40:17;48.60;;;33.10;;
52015;SDS011;38032;53.326;6.472;2023-05-07T07:42:43;44.25;;;32.40;;
52015;SDS011;38032;53.326;6.472;2023-05-07T07:45:09;46.88;;;32.53;;
52015;SDS011;38032;53.326;6.472;2023-05-07T07:47:35;48.38;;;33.90;;
52015;SDS011;38032;53.326;6.472;2023-05-07T07:50:01;52.72;;;34.60;;
52015;SDS011;38032;53.326;6.472;2023-05-07T07:52:27;49.55;;;35.28;;
52015;SDS011;38032;53.326;6.472;2023-05-07T07:54:53;47.55;;;34.03;;
52015;SDS011;38032;53.326;6.472;2023-05-07T07:57:19;49.35;;;34.78;;
52015;SDS011;38032;53.326;6.472;2023-05-07T07:59:45;47.80;;;34.45;;
52015;SDS011;38032;53.326;6.472;2023-05-07T08:02:10;50.65;;;35.50;;
52015;SDS011;38032;53.326;6.472;2023-05-07T08:04:36;47.35;;;34.25;;
52015;SDS011;38032;53.326;6.472;2023-05-07T08:07:02;44.75;;;32.33;;
52015;SDS011;38032;53.326;6.472;2023-05-07T08:09:28;42.55;;;31.52;;
52015;SDS011;38032;53.326;6.472;2023-05-07T08:11:54;43.10;;;31.48;;
52015;SDS011;38032;53.326;6.472;2023-05-07T08:14:20;40.90;;;29.63;;
52015;SDS011;38032;53.326;6.472;2023-05-07T08:16:46;38.80;;;28.67;;
52015;SDS011;38032;53.326;6.472;2023-05-07T08:19:12;38.00;;;27.77;;
52015;SDS011;38032;53.326;6.472;2023-05-07T08:21:38;36.22;;;26.33;;
52015;SDS011;38032;53.326;6.472;2023-05-07T08:24:05;32.55;;;24.80;;
52015;SDS011;38032;53.326;6.472;2023-05-07T08:26:31;33.53;;;24.98;;
52015;SDS011;38032;53.326;6.472;2023-05-07T08:28:56;33.08;;;25.20;;
52015;SDS011;38032;53.326;6.472;2023-05-07T08:31:22;31.70;;;23.90;;
52015;SDS011;38032;53.326;6.472;2023-05-07T08:33:48;31.00;;;24.13;;
52015;SDS011;38032;53.326;6.472;2023-05-07T08:36:15;29.80;;;23.75;;
52015;SDS011;38032;53.326;6.472;2023-05-07T08:38:41;32.85;;;22.83;;
52015;SDS011;38032;53.326;6.472;2023-05-07T08:41:09;28.02;;;22.00;;
52015;SDS011;38032;53.326;6.472;2023-05-07T08:43:36;27.88;;;21.63;;
52015;SDS011;38032;53.326;6.472;2023-05-07T08:46:05;32.90;;;22.35;;
52015;SDS011;38032;53.326;6.472;2023-05-07T08:48:34;30.50;;;23.67;;
52015;SDS011;38032;53.326;6.472;2023-05-07T08:51:01;34.17;;;25.08;;
52015;SDS011;38032;53.326;6.472;2023-05-07T08:53:26;31.38;;;22.65;;
52015;SDS011;38032;53.326;6.472;2023-05-07T08:55:53;30.30;;;23.88;;
52015;SDS011;38032;53.326;6.472;2023-05-07T08:58:19;29.10;;;22.45;;
52015;SDS011;38032;53.326;6.472;2023-05-07T09:00:45;26.27;;;20.00;;
52015;SDS011;38032;53.326;6.472;2023-05-07T09:03:12;27.10;;;20.58;;
52015;SDS011;38032;53.326;6.472;2023-05-07T09:05:39;25.38;;;20.63;;
52015;SDS011;38032;53.326;6.472;2023-05-07T09:08:06;26.30;;;20.35;;
52015;SDS011;38032;53.326;6.472;2023-05-07T09:10:33;30.75;;;21.73;;
52015;SDS011;38032;53.326;6.472;2023-05-07T09:12:59;28.40;;;20.00;;
52015;SDS011;38032;53.326;6.472;2023-05-07T09:15:26;24.52;;;18.80;;
52015;SDS011;38032;53.326;6.472;2023-05-07T09:17:53;24.48;;;19.30;;
52015;SDS011;38032;53.326;6.472;2023-05-07T09:20:19;25.90;;;20.05;;
52015;SDS011;38032;53.326;6.472;2023-05-07T09:22:45;26.45;;;19.75;;
52015;SDS011;38032;53.326;6.472;2023-05-07T09:25:11;24.40;;;19.65;;
52015;SDS011;38032;53.326;6.472;2023-05-07T09:27:37;24.50;;;20.08;;
52015;SDS011;38032;53.326;6.472;2023-05-07T09:30:04;24.25;;;20.38;;
52015;SDS011;38032;53.326;6.472;2023-05-07T09:32:33;24.80;;;18.88;;
52015;SDS011;38032;53.326;6.472;2023-05-07T09:35:01;24.30;;;19.10;;
52015;SDS011;38032;53.326;6.472;2023-05-07T09:37:27;23.60;;;18.95;;
52015;SDS011;38032;53.326;6.472;2023-05-07T09:39:55;23.52;;;17.77;;
52015;SDS011;38032;53.326;6.472;2023-05-07T09:42:23;23.10;;;17.88;;
52015;SDS011;38032;53.326;6.472;2023-05-07T09:44:51;24.85;;;18.48;;
52015;SDS011;38032;53.326;6.472;2023-05-07T09:47:18;24.00;;;17.92;;
52015;SDS011;38032;53.326;6.472;2023-05-07T09:49:46;21.45;;;17.17;;
52015;SDS011;38032;53.326;6.472;2023-05-07T09:52:13;20.45;;;17.35;;
52015;SDS011;38032;53.326;6.472;2023-05-07T09:54:40;22.63;;;17.33;;
52015;SDS011;38032;53.326;6.472;2023-05-07T09:57:09;21.40;;;17.15;;
52015;SDS011;38032;53.326;6.472;2023-05-07T09:59:37;20.55;;;16.90;;
52015;SDS011;38032;53.326;6.472;2023-05-07T10:02:04;19.52;;;16.00;;
52015;SDS011;38032;53.326;6.472;2023-05-07T10:04:32;21.73;;;17.20;;
52015;SDS011;38032;53.326;6.472;2023-05-07T10:06:59;20.40;;;15.98;;
52015;SDS011;38032;53.326;6.472;2023-05-07T10:09:26;19.40;;;16.58;;
52015;SDS011;38032;53.326;6.472;2023-05-07T10:11:52;22.23;;;17.25;;
52015;SDS011;38032;53.326;6.472;2023-05-07T10:14:20;20.02;;;15.50;;
52015;SDS011;38032;53.326;6.472;2023-05-07T10:16:46;21.13;;;16.42;;
52015;SDS011;38032;53.326;6.472;2023-05-07T10:19:13;17.90;;;15.43;;
52015;SDS011;38032;53.326;6.472;2023-05-07T10:21:44;19.42;;;16.40;;
52015;SDS011;38032;53.326;6.472;2023-05-07T10:24:20;19.27;;;15.18;;
52015;SDS011;38032;53.326;6.472;2023-05-07T10:26:51;18.90;;;15.48;;
52015;SDS011;38032;53.326;6.472;2023-05-07T10:29:23;18.50;;;15.43;;
52015;SDS011;38032;53.326;6.472;2023-05-07T10:31:55;20.63;;;15.75;;
52015;SDS011;38032;53.326;6.472;2023-05-07T10:34:35;17.58;;;15.20;;
52015;SDS011;38032;53.326;6.472;2023-05-07T10:37:04;18.95;;;15.70;;
52015;SDS011;38032;53.326;6.472;2023-05-07T10:39:31;18.58;;;16.25;;
52015;SDS011;38032;53.326;6.472;2023-05-07T10:42:06;19.92;;;16.05;;
52015;SDS011;38032;53.326;6.472;2023-05-07T10:44:33;16.60;;;14.80;;
52015;SDS011;38032;53.326;6.472;2023-05-07T10:47:05;18.58;;;15.15;;
52015;SDS011;38032;53.326;6.472;2023-05-07T10:49:34;18.92;;;15.48;;
52015;SDS011;38032;53.326;6.472;2023-05-07T10:52:11;18.67;;;15.50;;
52015;SDS011;38032;53.326;6.472;2023-05-07T10:54:39;16.60;;;14.68;;
52015;SDS011;38032;53.326;6.472;2023-05-07T10:59:54;18.25;;;15.27;;
52015;SDS011;38032;53.326;6.472;2023-05-07T11:02:20;16.20;;;14.30;;
52015;SDS011;38032;53.326;6.472;2023-05-07T11:04:49;18.13;;;14.48;;
52015;SDS011;38032;53.326;6.472;2023-05-07T11:07:53;18.08;;;15.32;;
52015;SDS011;38032;53.326;6.472;2023-05-07T11:10:20;16.73;;;14.38;;
52015;SDS011;38032;53.326;6.472;2023-05-07T11:12:47;16.48;;;14.02;;
52015;SDS011;38032;53.326;6.472;2023-05-07T11:15:14;15.68;;;14.07;;
52015;SDS011;38032;53.326;6.472;2023-05-07T11:17:58;15.32;;;13.65;;
52015;SDS011;38032;53.326;6.472;2023-05-07T11:26:00;15.88;;;14.20;;
52015;SDS011;38032;53.326;6.472;2023-05-07T11:28:36;16.48;;;14.07;;
52015;SDS011;38032;53.326;6.472;2023-05-07T11:31:03;15.70;;;13.77;;
52015;SDS011;38032;53.326;6.472;2023-05-07T11:33:30;15.02;;;13.52;;
52015;SDS011;38032;53.326;6.472;2023-05-07T11:35:56;15.27;;;13.20;;
52015;SDS011;38032;53.326;6.472;2023-05-07T11:38:23;14.77;;;13.27;;
52015;SDS011;38032;53.326;6.472;2023-05-07T11:40:52;15.38;;;13.73;;
52015;SDS011;38032;53.326;6.472;2023-05-07T11:43:18;14.48;;;12.60;;
52015;SDS011;38032;53.326;6.472;2023-05-07T11:45:45;14.63;;;13.05;;
52015;SDS011;38032;53.326;6.472;2023-05-07T11:48:12;15.02;;;13.43;;
52015;SDS011;38032;53.326;6.472;2023-05-07T11:50:50;14.70;;;13.20;;
52015;SDS011;38032;53.326;6.472;2023-05-07T11:53:17;14.63;;;13.13;;
52015;SDS011;38032;53.326;6.472;2023-05-07T11:55:45;14.20;;;12.70;;
52015;SDS011;38032;53.326;6.472;2023-05-07T11:58:12;15.32;;;13.07;;
52015;SDS011;38032;53.326;6.472;2023-05-07T12:00:49;15.43;;;12.85;;
52015;SDS011;38032;53.326;6.472;2023-05-07T12:03:16;13.55;;;12.25;;
52015;SDS011;38032;53.326;6.472;2023-05-07T12:05:44;14.10;;;12.60;;
52015;SDS011;38032;53.326;6.472;2023-05-07T12:08:14;13.90;;;12.50;;
52015;SDS011;38032;53.326;6.472;2023-05-07T12:10:41;15.23;;;13.05;;
52015;SDS011;38032;53.326;6.472;2023-05-07T12:15:44;14.15;;;12.65;;
52015;SDS011;38032;53.326;6.472;2023-05-07T12:18:11;16.38;;;13.60;;
52015;SDS011;38032;53.326;6.472;2023-05-07T12:20:38;15.13;;;13.52;;
52015;SDS011;38032;53.326;6.472;2023-05-07T12:23:04;15.10;;;13.50;;
52015;SDS011;38032;53.326;6.472;2023-05-07T12:25:31;15.60;;;14.00;;
52015;SDS011;38032;53.326;6.472;2023-05-07T12:28:00;14.65;;;13.07;;
52015;SDS011;38032;53.326;6.472;2023-05-07T12:30:26;14.65;;;13.10;;
52015;SDS011;38032;53.326;6.472;2023-05-07T12:32:53;14.15;;;12.68;;
52015;SDS011;38032;53.326;6.472;2023-05-07T12:35:26;14.95;;;13.02;;
52015;SDS011;38032;53.326;6.472;2023-05-07T12:37:56;14.32;;;12.82;;
52015;SDS011;38032;53.326;6.472;2023-05-07T12:40:34;13.80;;;12.40;;
52015;SDS011;38032;53.326;6.472;2023-05-07T12:43:03;14.18;;;12.68;;
52015;SDS011;38032;53.326;6.472;2023-05-07T12:45:29;14.05;;;12.57;;
52015;SDS011;38032;53.326;6.472;2023-05-07T12:47:55;13.65;;;12.23;;
52015;SDS011;38032;53.326;6.472;2023-05-07T12:50:22;15.10;;;13.50;;
52015;SDS011;38032;53.326;6.472;2023-05-07T12:52:48;15.00;;;12.65;;
52015;SDS011;38032;53.326;6.472;2023-05-07T12:55:14;14.82;;;13.32;;
52015;SDS011;38032;53.326;6.472;2023-05-07T12:57:42;15.15;;;13.65;;
52015;SDS011;38032;53.326;6.472;2023-05-07T13:00:09;15.20;;;13.50;;
52015;SDS011;38032;53.326;6.472;2023-05-07T13:02:39;15.13;;;13.57;;
52015;SDS011;38032;53.326;6.472;2023-05-07T13:05:06;14.40;;;12.90;;
52015;SDS011;38032;53.326;6.472;2023-05-07T13:07:32;15.98;;;13.18;;
52015;SDS011;38032;53.326;6.472;2023-05-07T13:09:59;15.48;;;13.98;;
52015;SDS011;38032;53.326;6.472;2023-05-07T13:12:24;15.98;;;14.38;;
52015;SDS011;38032;53.326;6.472;2023-05-07T13:14:50;15.63;;;13.95;;
52015;SDS011;38032;53.326;6.472;2023-05-07T13:17:16;15.95;;;14.27;;
52015;SDS011;38032;53.326;6.472;2023-05-07T13:19:43;15.38;;;13.77;;
52015;SDS011;38032;53.326;6.472;2023-05-07T13:22:09;16.33;;;14.73;;
52015;SDS011;38032;53.326;6.472;2023-05-07T13:24:36;16.88;;;15.20;;
52015;SDS011;38032;53.326;6.472;2023-05-07T13:27:02;16.38;;;14.05;;
52015;SDS011;38032;53.326;6.472;2023-05-07T13:29:29;16.10;;;14.50;;
52015;SDS011;38032;53.326;6.472;2023-05-07T13:31:56;16.90;;;15.20;;
52015;SDS011;38032;53.326;6.472;2023-05-07T13:34:22;16.05;;;13.98;;
52015;SDS011;38032;53.326;6.472;2023-05-07T13:36:48;15.30;;;13.80;;
52015;SDS011;38032;53.326;6.472;2023-05-07T13:39:14;15.73;;;14.13;;
52015;SDS011;38032;53.326;6.472;2023-05-07T13:41:40;15.80;;;14.10;;
52015;SDS011;38032;53.326;6.472;2023-05-07T13:44:06;15.48;;;13.88;;
52015;SDS011;38032;53.326;6.472;2023-05-07T13:46:32;15.50;;;13.80;;
52015;SDS011;38032;53.326;6.472;2023-05-07T13:48:58;15.05;;;13.55;;
52015;SDS011;38032;53.326;6.472;2023-05-07T13:51:24;15.43;;;13.82;;
52015;SDS011;38032;53.326;6.472;2023-05-07T13:53:51;15.20;;;13.57;;
52015;SDS011;38032;53.326;6.472;2023-05-07T13:56:17;15.68;;;13.98;;
52015;SDS011;38032;53.326;6.472;2023-05-07T13:58:43;15.20;;;13.70;;
52015;SDS011;38032;53.326;6.472;2023-05-07T14:01:09;15.88;;;14.15;;
52015;SDS011;38032;53.326;6.472;2023-05-07T14:03:35;15.50;;;13.88;;
52015;SDS011;38032;53.326;6.472;2023-05-07T14:06:03;15.75;;;14.05;;
52015;SDS011;38032;53.326;6.472;2023-05-07T14:08:29;14.75;;;13.25;;
52015;SDS011;38032;53.326;6.472;2023-05-07T14:10:55;14.63;;;13.23;;
52015;SDS011;38032;53.326;6.472;2023-05-07T14:13:21;14.93;;;13.30;;
52015;SDS011;38032;53.326;6.472;2023-05-07T14:15:46;15.07;;;13.57;;
52015;SDS011;38032;53.326;6.472;2023-05-07T14:18:14;14.45;;;12.95;;
52015;SDS011;38032;53.326;6.472;2023-05-07T14:20:41;14.23;;;12.80;;
52015;SDS011;38032;53.326;6.472;2023-05-07T14:23:08;14.95;;;13.40;;
52015;SDS011;38032;53.326;6.472;2023-05-07T14:25:34;14.40;;;13.00;;
52015;SDS011;38032;53.326;6.472;2023-05-07T14:28:00;13.95;;;11.48;;
52015;SDS011;38032;53.326;6.472;2023-05-07T14:30:26;15.35;;;11.95;;